createdAt,value
2022-10-09T00:00:22.137Z,1015.12
2022-10-09T00:01:22.158Z,1015.12
2022-10-09T00:02:22.168Z,1015.1
2022-10-09T00:03:22.124Z,1015.11
2022-10-09T00:04:22.142Z,1015.09
2022-10-09T00:05:22.166Z,1015.11
2022-10-09T00:06:22.156Z,1015.09
2022-10-09T00:07:22.144Z,1015.08
2022-10-09T00:08:22.138Z,1015.08
2022-10-09T00:09:22.134Z,1015.05
2022-10-09T00:10:22.140Z,1015.03
2022-10-09T00:11:22.147Z,1015.04
2022-10-09T00:12:22.139Z,1015.03
2022-10-09T00:13:22.138Z,1015.01
2022-10-09T00:14:22.132Z,1015.03
2022-10-09T00:15:22.147Z,1015
2022-10-09T00:16:22.187Z,1015.02
2022-10-09T00:17:22.130Z,1015.04
2022-10-09T00:18:22.217Z,1015.06
2022-10-09T00:19:22.264Z,1015.03
2022-10-09T00:20:22.159Z,1015.02
2022-10-09T00:21:22.676Z,1015.01
2022-10-09T00:22:22.132Z,1015.03
2022-10-09T00:23:22.137Z,1015.03
2022-10-09T00:24:22.140Z,1015.02
2022-10-09T00:25:22.139Z,1015.05
2022-10-09T00:26:22.137Z,1015.04
2022-10-09T00:27:22.121Z,1015.06
2022-10-09T00:28:22.181Z,1015.07
2022-10-09T00:29:22.258Z,1015.09
2022-10-09T00:30:22.155Z,1015.09
2022-10-09T00:31:22.271Z,1015.09
2022-10-09T00:32:22.117Z,1015.12
2022-10-09T00:33:22.239Z,1015.09
2022-10-09T00:34:22.270Z,1015.15
2022-10-09T00:35:22.128Z,1015.17
2022-10-09T00:36:22.647Z,1015.15
2022-10-09T00:37:22.125Z,1015.18
2022-10-09T00:38:22.681Z,1015.24
2022-10-09T00:39:22.230Z,1015.19
2022-10-09T00:40:22.124Z,1015.19
2022-10-09T00:41:22.653Z,1015.23
2022-10-09T00:42:22.194Z,1015.22
2022-10-09T00:43:22.307Z,1015.2
2022-10-09T00:44:22.226Z,1015.2
2022-10-09T00:45:22.757Z,1015.18
2022-10-09T00:46:23.022Z,1015.17
2022-10-09T00:47:22.137Z,1015.19
2022-10-09T00:48:22.147Z,1015.2
2022-10-09T00:49:22.158Z,1015.22
2022-10-09T00:50:22.148Z,1015.21
2022-10-09T00:51:22.141Z,1015.2
2022-10-09T00:52:22.132Z,1015.21
2022-10-09T00:53:22.206Z,1015.2
2022-10-09T00:54:22.232Z,1015.24
2022-10-09T00:55:22.128Z,1015.25
2022-10-09T00:56:22.120Z,1015.22
2022-10-09T00:57:22.134Z,1015.21
2022-10-09T00:58:22.135Z,1015.19
2022-10-09T00:59:22.135Z,1015.23
2022-10-09T01:00:22.139Z,1015.24
2022-10-09T01:01:22.248Z,1015.25
2022-10-09T01:02:22.190Z,1015.26
2022-10-09T01:03:22.271Z,1015.24
2022-10-09T01:04:22.242Z,1015.23
2022-10-09T01:05:22.202Z,1015.24
2022-10-09T01:06:22.148Z,1015.25
2022-10-09T01:07:22.132Z,1015.25
2022-10-09T01:08:22.148Z,1015.27
2022-10-09T01:09:22.134Z,1015.25
2022-10-09T01:10:22.142Z,1015.22
2022-10-09T01:11:22.142Z,1015.22
2022-10-09T01:12:22.132Z,1015.21
2022-10-09T01:13:22.149Z,1015.22
2022-10-09T01:14:22.134Z,1015.26
2022-10-09T01:15:22.144Z,1015.21
2022-10-09T01:16:27.252Z,1015.22
2022-10-09T01:17:22.130Z,1015.21
2022-10-09T01:18:22.334Z,1015.19
2022-10-09T01:19:22.761Z,1015.17
2022-10-09T01:20:22.787Z,1015.16
2022-10-09T01:21:21.775Z,1015.16
2022-10-09T01:22:22.017Z,1015.1
2022-10-09T01:23:22.705Z,1015.09
2022-10-09T01:24:22.762Z,1015.12
2022-10-09T01:25:21.978Z,1015.13
2022-10-09T01:26:22.772Z,1015.11
2022-10-09T01:27:22.882Z,1015.14
2022-10-09T01:28:22.214Z,1015.11
2022-10-09T01:29:22.727Z,1015.11
2022-10-09T01:30:22.951Z,1015.1
2022-10-09T01:31:22.226Z,1015.13
2022-10-09T01:32:22.151Z,1015.12
2022-10-09T01:33:22.178Z,1015.09
2022-10-09T01:34:22.156Z,1015.13
2022-10-09T01:35:22.139Z,1015.11
2022-10-09T01:36:22.199Z,1015.11
2022-10-09T01:37:22.150Z,1015.1
2022-10-09T01:38:22.130Z,1015.06
2022-10-09T01:39:22.146Z,1015.12
2022-10-09T01:40:22.163Z,1015.07
2022-10-09T01:41:22.139Z,1015.08
2022-10-09T01:42:22.134Z,1015.08
2022-10-09T01:43:22.113Z,1015.1
2022-10-09T01:44:22.147Z,1015.07
2022-10-09T01:45:22.173Z,1015.09
2022-10-09T01:46:22.165Z,1015.08
2022-10-09T01:47:22.133Z,1015.09
2022-10-09T01:48:22.145Z,1015.07
2022-10-09T01:49:22.217Z,1015.07
2022-10-09T01:50:22.759Z,1015.1
2022-10-09T01:51:22.130Z,1015.09
2022-10-09T01:52:22.709Z,1015.06
2022-10-09T01:53:22.307Z,1015.04
2022-10-09T01:54:22.775Z,1015.04
2022-10-09T01:55:22.326Z,1015.05
2022-10-09T01:56:22.825Z,1015.04
2022-10-09T01:57:22.834Z,1015.02
2022-10-09T01:58:22.924Z,1014.98
2022-10-09T01:59:24.042Z,1015.03
2022-10-09T02:00:23.403Z,1014.99
2022-10-09T02:01:23.417Z,1015
2022-10-09T02:02:23.660Z,1014.98
2022-10-09T02:03:22.350Z,1015
2022-10-09T02:04:23.369Z,1014.99
2022-10-09T02:05:22.367Z,1015.03
2022-10-09T02:06:22.160Z,1014.95
2022-10-09T02:07:22.184Z,1015.01
2022-10-09T02:08:22.856Z,1014.95
2022-10-09T02:09:22.113Z,1014.97
2022-10-09T02:10:22.797Z,1014.95
2022-10-09T02:11:22.803Z,1014.96
2022-10-09T02:12:22.907Z,1014.93
2022-10-09T02:13:22.269Z,1014.94
2022-10-09T02:14:22.678Z,1014.89
2022-10-09T02:15:22.891Z,1014.89
2022-10-09T02:16:22.237Z,1014.88
2022-10-09T02:17:22.858Z,1014.87
2022-10-09T02:18:22.918Z,1014.91
2022-10-09T02:19:22.886Z,1014.86
2022-10-09T02:20:23.173Z,1014.91
2022-10-09T02:21:23.692Z,1014.9
2022-10-09T02:22:23.352Z,1014.92
2022-10-09T02:23:22.295Z,1014.89
2022-10-09T02:24:22.132Z,1014.91
2022-10-09T02:25:23.011Z,1014.9
2022-10-09T02:26:22.183Z,1014.88
2022-10-09T02:27:22.152Z,1014.86
2022-10-09T02:28:22.386Z,1014.89
2022-10-09T02:29:23.060Z,1014.89
2022-10-09T02:30:22.293Z,1014.88
2022-10-09T02:31:22.145Z,1014.9
2022-10-09T02:32:22.370Z,1014.89
2022-10-09T02:33:22.131Z,1014.93
2022-10-09T02:34:22.139Z,1014.92
2022-10-09T02:35:22.204Z,1014.95
2022-10-09T02:36:22.154Z,1014.92
2022-10-09T02:37:22.242Z,1014.92
2022-10-09T02:38:22.156Z,1014.93
2022-10-09T02:39:22.390Z,1014.95
2022-10-09T02:40:22.146Z,1014.94
2022-10-09T02:41:22.145Z,1014.94
2022-10-09T02:42:22.154Z,1014.92
2022-10-09T02:43:22.390Z,1014.93
2022-10-09T02:44:22.136Z,1014.95
2022-10-09T02:45:22.129Z,1014.92
2022-10-09T02:46:22.172Z,1014.95
2022-10-09T02:47:22.138Z,1014.91
2022-10-09T02:48:22.148Z,1014.92
2022-10-09T02:49:22.139Z,1014.93
2022-10-09T02:50:22.145Z,1014.85
2022-10-09T02:51:22.150Z,1014.89
2022-10-09T02:52:22.140Z,1014.83
2022-10-09T02:53:22.143Z,1014.82
2022-10-09T02:54:22.125Z,1014.82
2022-10-09T02:55:22.139Z,1014.82
2022-10-09T02:56:22.131Z,1014.83
2022-10-09T02:57:22.136Z,1014.85
2022-10-09T02:58:22.150Z,1014.83
2022-10-09T02:59:22.142Z,1014.82
2022-10-09T03:00:22.147Z,1014.83
2022-10-09T03:01:22.152Z,1014.83
2022-10-09T03:02:22.225Z,1014.84
2022-10-09T03:03:22.169Z,1014.85
2022-10-09T03:04:22.130Z,1014.81
2022-10-09T03:05:22.128Z,1014.85
2022-10-09T03:06:22.140Z,1014.82
2022-10-09T03:07:22.141Z,1014.83
2022-10-09T03:08:22.159Z,1014.79
2022-10-09T03:09:22.152Z,1014.82
2022-10-09T03:10:22.132Z,1014.85
2022-10-09T03:11:22.147Z,1014.81
2022-10-09T03:12:22.139Z,1014.79
2022-10-09T03:13:22.142Z,1014.82
2022-10-09T03:14:22.225Z,1014.84
2022-10-09T03:15:22.115Z,1014.82
2022-10-09T03:16:22.214Z,1014.78
2022-10-09T03:17:22.131Z,1014.79
2022-10-09T03:18:22.144Z,1014.76
2022-10-09T03:19:22.135Z,1014.75
2022-10-09T03:20:22.149Z,1014.75
2022-10-09T03:21:22.143Z,1014.74
2022-10-09T03:22:22.152Z,1014.75
2022-10-09T03:23:22.138Z,1014.76
2022-10-09T03:24:22.149Z,1014.79
2022-10-09T03:25:22.143Z,1014.82
2022-10-09T03:26:22.134Z,1014.81
2022-10-09T03:27:22.140Z,1014.8
2022-10-09T03:28:22.191Z,1014.79
2022-10-09T03:29:22.147Z,1014.79
2022-10-09T03:30:22.148Z,1014.74
2022-10-09T03:31:50.977Z,1014.79
2022-10-09T03:32:22.179Z,1014.78
2022-10-09T03:33:22.132Z,1014.81
2022-10-09T03:34:22.130Z,1014.84
2022-10-09T03:35:22.239Z,1014.82
2022-10-09T03:36:22.167Z,1014.82
2022-10-09T03:37:22.141Z,1014.81
2022-10-09T03:38:22.128Z,1014.8
2022-10-09T03:39:22.113Z,1014.78
2022-10-09T03:40:22.120Z,1014.77
2022-10-09T03:41:22.122Z,1014.77
2022-10-09T03:42:22.208Z,1014.75
2022-10-09T03:43:22.149Z,1014.76
2022-10-09T03:44:22.267Z,1014.75
2022-10-09T03:45:22.121Z,1014.78
2022-10-09T03:46:22.455Z,1014.79
2022-10-09T03:47:22.200Z,1014.79
2022-10-09T03:48:22.270Z,1014.76
2022-10-09T03:49:22.195Z,1014.73
2022-10-09T03:50:22.132Z,1014.76
2022-10-09T03:51:22.355Z,1014.75
2022-10-09T03:52:22.132Z,1014.71
2022-10-09T03:53:22.429Z,1014.72
2022-10-09T03:54:22.271Z,1014.72
2022-10-09T03:55:22.289Z,1014.75
2022-10-09T03:56:22.320Z,1014.71
2022-10-09T03:57:22.944Z,1014.7
2022-10-09T03:58:23.209Z,1014.71
2022-10-09T03:59:23.070Z,1014.7
2022-10-09T04:00:22.125Z,1014.7
2022-10-09T04:01:22.221Z,1014.68
2022-10-09T04:02:22.163Z,1014.68
2022-10-09T04:03:22.134Z,1014.64
2022-10-09T04:04:22.138Z,1014.66
2022-10-09T04:05:22.150Z,1014.67
2022-10-09T04:06:22.136Z,1014.64
2022-10-09T04:07:22.186Z,1014.69
2022-10-09T04:08:22.146Z,1014.71
2022-10-09T04:09:22.141Z,1014.65
2022-10-09T04:10:22.236Z,1014.69
2022-10-09T04:11:22.138Z,1014.69
2022-10-09T04:12:22.136Z,1014.73
2022-10-09T04:13:22.141Z,1014.72
2022-10-09T04:14:22.154Z,1014.7
2022-10-09T04:15:22.131Z,1014.72
2022-10-09T04:16:22.181Z,1014.73
2022-10-09T04:17:22.141Z,1014.74
2022-10-09T04:18:22.144Z,1014.77
2022-10-09T04:19:22.137Z,1014.74
2022-10-09T04:20:22.147Z,1014.74
2022-10-09T04:21:22.372Z,1014.75
2022-10-09T04:22:22.118Z,1014.72
2022-10-09T04:23:22.148Z,1014.73
2022-10-09T04:24:22.133Z,1014.74
2022-10-09T04:25:22.135Z,1014.73
2022-10-09T04:26:22.134Z,1014.68
2022-10-09T04:27:22.143Z,1014.69
2022-10-09T04:28:22.164Z,1014.67
2022-10-09T04:29:22.120Z,1014.68
2022-10-09T04:30:22.146Z,1014.67
2022-10-09T04:31:22.429Z,1014.66
2022-10-09T04:32:22.112Z,1014.64
2022-10-09T04:33:22.147Z,1014.66
2022-10-09T04:34:22.850Z,1014.65
2022-10-09T04:35:22.423Z,1014.63
2022-10-09T04:36:21.760Z,1014.61
2022-10-09T04:37:21.974Z,1014.63
2022-10-09T04:38:22.361Z,1014.57
2022-10-09T04:39:22.876Z,1014.59
2022-10-09T04:40:21.973Z,1014.59
2022-10-09T04:41:22.368Z,1014.63
2022-10-09T04:42:22.947Z,1014.62
2022-10-09T04:43:22.178Z,1014.62
2022-10-09T04:44:22.382Z,1014.6
2022-10-09T04:45:23.241Z,1014.56
2022-10-09T04:46:22.138Z,1014.57
2022-10-09T04:47:22.134Z,1014.63
2022-10-09T04:48:22.134Z,1014.62
2022-10-09T04:49:22.132Z,1014.61
2022-10-09T04:50:22.157Z,1014.61
2022-10-09T04:51:22.180Z,1014.63
2022-10-09T04:52:22.211Z,1014.61
2022-10-09T04:53:22.219Z,1014.59
2022-10-09T04:54:22.141Z,1014.65
2022-10-09T04:55:22.150Z,1014.61
2022-10-09T04:56:22.187Z,1014.59
2022-10-09T04:57:22.122Z,1014.62
2022-10-09T04:58:22.253Z,1014.61
2022-10-09T04:59:22.138Z,1014.62
2022-10-09T05:00:22.126Z,1014.58
2022-10-09T05:01:22.696Z,1014.64
2022-10-09T05:02:22.233Z,1014.64
2022-10-09T05:03:22.204Z,1014.67
2022-10-09T05:04:22.464Z,1014.66
2022-10-09T05:05:22.198Z,1014.66
2022-10-09T05:06:22.484Z,1014.66
2022-10-09T05:07:22.314Z,1014.68
2022-10-09T05:08:22.558Z,1014.62
2022-10-09T05:09:22.364Z,1014.62
2022-10-09T05:10:22.150Z,1014.59
2022-10-09T05:11:22.469Z,1014.59
2022-10-09T05:12:22.218Z,1014.57
2022-10-09T05:13:22.390Z,1014.55
2022-10-09T05:14:22.691Z,1014.57
2022-10-09T05:15:22.172Z,1014.59
2022-10-09T05:16:22.498Z,1014.62
2022-10-09T05:17:26.222Z,1014.61
2022-10-09T05:18:22.293Z,1014.61
2022-10-09T05:19:22.312Z,1014.62
2022-10-09T05:20:22.138Z,1014.57
2022-10-09T05:21:22.216Z,1014.63
2022-10-09T05:22:22.470Z,1014.63
2022-10-09T05:23:22.499Z,1014.63
2022-10-09T05:24:22.272Z,1014.61
2022-10-09T05:25:22.337Z,1014.59
2022-10-09T05:26:22.685Z,1014.6
2022-10-09T05:27:22.360Z,1014.61
2022-10-09T05:28:22.442Z,1014.59
2022-10-09T05:29:22.503Z,1014.6
2022-10-09T05:30:22.623Z,1014.6
2022-10-09T05:31:22.966Z,1014.59
2022-10-09T05:32:22.401Z,1014.6
2022-10-09T05:33:22.602Z,1014.62
2022-10-09T05:34:22.289Z,1014.63
2022-10-09T05:35:22.560Z,1014.61
2022-10-09T05:36:22.793Z,1014.6
2022-10-09T05:37:22.257Z,1014.63
2022-10-09T05:38:22.391Z,1014.64
2022-10-09T05:39:22.112Z,1014.67
2022-10-09T05:40:29.151Z,1014.68
2022-10-09T05:41:22.169Z,1014.66
2022-10-09T05:42:22.137Z,1014.67
2022-10-09T05:43:22.439Z,1014.67
2022-10-09T05:44:22.151Z,1014.68
2022-10-09T05:45:22.287Z,1014.69
2022-10-09T05:46:22.144Z,1014.68
2022-10-09T05:47:22.134Z,1014.7
2022-10-09T05:48:22.119Z,1014.67
2022-10-09T05:49:22.441Z,1014.71
2022-10-09T05:50:22.225Z,1014.68
2022-10-09T05:51:22.141Z,1014.64
2022-10-09T05:52:22.262Z,1014.67
2022-10-09T05:53:22.146Z,1014.67
2022-10-09T05:54:22.133Z,1014.69
2022-10-09T05:55:22.139Z,1014.68
2022-10-09T05:56:22.254Z,1014.68
2022-10-09T05:57:22.134Z,1014.63
2022-10-09T05:58:22.170Z,1014.66
2022-10-09T05:59:22.138Z,1014.65
2022-10-09T06:00:22.149Z,1014.64
2022-10-09T06:01:22.195Z,1014.59
2022-10-09T06:02:22.233Z,1014.57
2022-10-09T06:03:22.152Z,1014.58
2022-10-09T06:04:22.140Z,1014.55
2022-10-09T06:05:22.142Z,1014.56
2022-10-09T06:06:22.160Z,1014.57
2022-10-09T06:07:22.144Z,1014.58
2022-10-09T06:08:22.163Z,1014.56
2022-10-09T06:09:22.216Z,1014.55
2022-10-09T06:10:22.134Z,1014.57
2022-10-09T06:11:22.136Z,1014.58
2022-10-09T06:12:22.131Z,1014.58
2022-10-09T06:13:22.142Z,1014.56
2022-10-09T06:14:22.372Z,1014.61
2022-10-09T06:15:22.140Z,1014.63
2022-10-09T06:16:22.163Z,1014.63
2022-10-09T06:17:22.153Z,1014.58
2022-10-09T06:18:22.144Z,1014.62
2022-10-09T06:19:22.133Z,1014.64
2022-10-09T06:20:22.138Z,1014.59
2022-10-09T06:21:22.167Z,1014.57
2022-10-09T06:22:22.152Z,1014.59
2022-10-09T06:23:22.142Z,1014.62
2022-10-09T06:24:29.467Z,1014.61
2022-10-09T06:25:22.145Z,1014.58
2022-10-09T06:26:22.142Z,1014.6
2022-10-09T06:27:22.140Z,1014.63
2022-10-09T06:28:22.207Z,1014.63
2022-10-09T06:29:22.146Z,1014.62
2022-10-09T06:30:22.146Z,1014.59
2022-10-09T06:31:22.211Z,1014.59
2022-10-09T06:32:22.135Z,1014.59
2022-10-09T06:33:22.156Z,1014.56
2022-10-09T06:34:22.146Z,1014.6
2022-10-09T06:35:22.135Z,1014.61
2022-10-09T06:36:22.150Z,1014.62
2022-10-09T06:37:22.159Z,1014.64
2022-10-09T06:38:22.178Z,1014.59
2022-10-09T06:39:22.218Z,1014.56
2022-10-09T06:40:22.143Z,1014.57
2022-10-09T06:41:22.237Z,1014.58
2022-10-09T06:42:22.242Z,1014.6
2022-10-09T06:43:22.151Z,1014.59
2022-10-09T06:44:22.140Z,1014.61
2022-10-09T06:45:22.139Z,1014.58
2022-10-09T06:46:22.218Z,1014.63
2022-10-09T06:47:22.140Z,1014.62
2022-10-09T06:48:22.160Z,1014.6
2022-10-09T06:49:22.139Z,1014.63
2022-10-09T06:50:22.147Z,1014.63
2022-10-09T06:51:22.262Z,1014.62
2022-10-09T06:52:22.147Z,1014.59
2022-10-09T06:53:22.225Z,1014.61
2022-10-09T06:54:22.122Z,1014.6
2022-10-09T06:55:28.554Z,1014.61
2022-10-09T06:56:22.142Z,1014.6
2022-10-09T06:57:22.185Z,1014.61
2022-10-09T06:58:22.138Z,1014.62
2022-10-09T06:59:22.261Z,1014.62
2022-10-09T07:00:22.560Z,1014.62
2022-10-09T07:01:22.412Z,1014.64
2022-10-09T07:02:22.492Z,1014.68
2022-10-09T07:03:22.429Z,1014.65
2022-10-09T07:04:22.378Z,1014.69
2022-10-09T07:05:22.408Z,1014.68
2022-10-09T07:06:22.266Z,1014.69
2022-10-09T07:07:22.145Z,1014.69
2022-10-09T07:08:22.312Z,1014.67
2022-10-09T07:09:22.228Z,1014.67
2022-10-09T07:10:28.240Z,1014.68
2022-10-09T07:11:22.141Z,1014.65
2022-10-09T07:12:22.365Z,1014.72
2022-10-09T07:13:22.150Z,1014.72
2022-10-09T07:14:22.179Z,1014.7
2022-10-09T07:15:22.177Z,1014.66
2022-10-09T07:16:22.169Z,1014.71
2022-10-09T07:17:22.135Z,1014.72
2022-10-09T07:18:22.127Z,1014.76
2022-10-09T07:19:22.149Z,1014.75
2022-10-09T07:20:22.143Z,1014.74
2022-10-09T07:21:22.159Z,1014.72
2022-10-09T07:22:28.193Z,1014.69
2022-10-09T07:23:22.124Z,1014.7
2022-10-09T07:24:22.150Z,1014.67
2022-10-09T07:25:22.126Z,1014.72
2022-10-09T07:26:22.301Z,1014.72
2022-10-09T07:27:22.163Z,1014.73
2022-10-09T07:28:22.158Z,1014.73
2022-10-09T07:29:22.140Z,1014.76
2022-10-09T07:30:22.142Z,1014.77
2022-10-09T07:31:22.180Z,1014.75
2022-10-09T07:32:22.142Z,1014.76
2022-10-09T07:33:22.149Z,1014.76
2022-10-09T07:34:22.145Z,1014.77
2022-10-09T07:35:22.228Z,1014.73
2022-10-09T07:36:22.153Z,1014.73
2022-10-09T07:37:22.139Z,1014.74
2022-10-09T07:38:22.228Z,1014.67
2022-10-09T07:39:22.135Z,1014.68
2022-10-09T07:40:22.159Z,1014.67
2022-10-09T07:41:22.139Z,1014.65
2022-10-09T07:42:22.142Z,1014.64
2022-10-09T07:43:22.138Z,1014.63
2022-10-09T07:44:22.131Z,1014.63
2022-10-09T07:45:22.512Z,1014.66
2022-10-09T07:46:22.801Z,1014.61
2022-10-09T07:47:22.688Z,1014.65
2022-10-09T07:48:23.328Z,1014.63
2022-10-09T07:49:23.521Z,1014.62
2022-10-09T07:50:22.644Z,1014.59
2022-10-09T07:51:21.928Z,1014.58
2022-10-09T07:52:23.485Z,1014.6
2022-10-09T07:53:22.558Z,1014.62
2022-10-09T07:54:21.900Z,1014.62
2022-10-09T07:55:22.030Z,1014.6
2022-10-09T07:56:22.503Z,1014.58
2022-10-09T07:57:22.772Z,1014.58
2022-10-09T07:58:22.170Z,1014.58
2022-10-09T07:59:23.196Z,1014.6
2022-10-09T08:00:22.890Z,1014.61
2022-10-09T08:01:23.442Z,1014.59
2022-10-09T08:02:22.220Z,1014.59
2022-10-09T08:03:22.131Z,1014.6
2022-10-09T08:04:22.243Z,1014.58
2022-10-09T08:05:22.120Z,1014.58
2022-10-09T08:06:22.135Z,1014.6
2022-10-09T08:07:22.117Z,1014.6
2022-10-09T08:08:22.226Z,1014.58
2022-10-09T08:09:22.326Z,1014.59
2022-10-09T08:10:22.277Z,1014.6
2022-10-09T08:11:22.349Z,1014.56
2022-10-09T08:12:22.204Z,1014.57
2022-10-09T08:13:22.500Z,1014.56
2022-10-09T08:14:22.118Z,1014.6
2022-10-09T08:15:22.406Z,1014.58
2022-10-09T08:16:22.416Z,1014.55
2022-10-09T08:17:23.524Z,1014.56
2022-10-09T08:18:22.287Z,1014.53
2022-10-09T08:19:22.422Z,1014.55
2022-10-09T08:20:22.703Z,1014.55
2022-10-09T08:21:23.517Z,1014.57
2022-10-09T08:22:22.159Z,1014.55
2022-10-09T08:23:22.436Z,1014.58
2022-10-09T08:24:22.240Z,1014.56
2022-10-09T08:25:22.112Z,1014.53
2022-10-09T08:26:22.137Z,1014.56
2022-10-09T08:27:22.190Z,1014.56
2022-10-09T08:28:22.647Z,1014.58
2022-10-09T08:29:22.150Z,1014.58
2022-10-09T08:30:22.227Z,1014.55
2022-10-09T08:31:22.323Z,1014.53
2022-10-09T08:32:22.131Z,1014.5
2022-10-09T08:33:22.292Z,1014.52
2022-10-09T08:34:22.230Z,1014.52
2022-10-09T08:35:22.532Z,1014.54
2022-10-09T08:36:22.822Z,1014.5
2022-10-09T08:37:22.466Z,1014.53
2022-10-09T08:38:46.448Z,1014.52
2022-10-09T08:39:22.667Z,1014.53
2022-10-09T08:40:22.414Z,1014.5
2022-10-09T08:41:22.762Z,1014.53
2022-10-09T08:42:22.925Z,1014.51
2022-10-09T08:43:22.255Z,1014.48
2022-10-09T08:44:22.543Z,1014.48
2022-10-09T08:45:22.806Z,1014.48
2022-10-09T08:46:23.695Z,1014.48
2022-10-09T08:47:22.170Z,1014.45
2022-10-09T08:48:22.497Z,1014.47
2022-10-09T08:49:22.735Z,1014.46
2022-10-09T08:50:22.182Z,1014.47
2022-10-09T08:51:22.415Z,1014.44
2022-10-09T08:52:22.346Z,1014.43
2022-10-09T08:53:22.137Z,1014.47
2022-10-09T08:54:22.147Z,1014.45
2022-10-09T08:55:22.435Z,1014.42
2022-10-09T08:56:22.703Z,1014.37
2022-10-09T08:57:22.121Z,1014.38
2022-10-09T08:58:22.268Z,1014.4
2022-10-09T08:59:22.555Z,1014.34
2022-10-09T09:00:22.292Z,1014.35
2022-10-09T09:01:22.182Z,1014.33
2022-10-09T09:02:22.356Z,1014.28
2022-10-09T09:03:22.149Z,1014.35
2022-10-09T09:04:22.142Z,1014.24
2022-10-09T09:05:22.145Z,1014.32
2022-10-09T09:06:22.424Z,1014.29
2022-10-09T09:07:22.133Z,1014.25
2022-10-09T09:08:22.135Z,1014.28
2022-10-09T09:09:22.155Z,1014.23
2022-10-09T09:10:22.204Z,1014.17
2022-10-09T09:11:25.182Z,1014.21
2022-10-09T09:12:22.207Z,1014.15
2022-10-09T09:13:22.182Z,1014.15
2022-10-09T09:14:22.148Z,1014.18
2022-10-09T09:15:22.153Z,1014.18
2022-10-09T09:16:22.179Z,1014.17
2022-10-09T09:17:22.143Z,1014.14
2022-10-09T09:18:22.127Z,1014.12
2022-10-09T09:19:22.150Z,1014.13
2022-10-09T09:20:22.218Z,1014.1
2022-10-09T09:21:22.147Z,1014.09
2022-10-09T09:22:22.139Z,1014.08
2022-10-09T09:23:22.137Z,1014.08
2022-10-09T09:24:22.307Z,1014.09
2022-10-09T09:25:22.135Z,1014.03
2022-10-09T09:26:22.135Z,1014.06
2022-10-09T09:27:22.136Z,1014.02
2022-10-09T09:28:22.161Z,1014.03
2022-10-09T09:29:22.156Z,1014.03
2022-10-09T09:30:22.236Z,1014.01
2022-10-09T09:31:22.205Z,1014.02
2022-10-09T09:32:22.183Z,1013.96
2022-10-09T09:33:22.186Z,1013.97
2022-10-09T09:34:22.187Z,1013.97
2022-10-09T09:35:22.145Z,1013.93
2022-10-09T09:36:22.138Z,1013.87
2022-10-09T09:37:22.263Z,1013.88
2022-10-09T09:38:22.144Z,1013.91
2022-10-09T09:40:36.505Z,1013.86
2022-10-09T09:41:22.146Z,1013.86
2022-10-09T09:42:22.135Z,1013.86
2022-10-09T09:43:22.152Z,1013.85
2022-10-09T09:44:22.136Z,1013.87
2022-10-09T09:45:22.144Z,1013.85
2022-10-09T09:46:22.167Z,1013.78
2022-10-09T09:47:22.182Z,1013.77
2022-10-09T09:48:22.204Z,1013.73
2022-10-09T09:49:22.131Z,1013.69
2022-10-09T09:50:46.908Z,1013.7
2022-10-09T09:51:31.262Z,1013.69
2022-10-09T09:52:22.139Z,1013.63
2022-10-09T09:53:22.171Z,1013.62
2022-10-09T09:54:22.140Z,1013.64
2022-10-09T09:55:22.152Z,1013.57
2022-10-09T09:56:22.150Z,1013.53
2022-10-09T09:57:25.145Z,1013.54
2022-10-09T09:58:22.183Z,1013.58
2022-10-09T09:59:22.169Z,1013.56
2022-10-09T10:00:22.142Z,1013.52
2022-10-09T10:01:22.201Z,1013.51
2022-10-09T10:02:22.275Z,1013.51
2022-10-09T10:03:22.137Z,1013.49
2022-10-09T10:04:22.135Z,1013.45
2022-10-09T10:05:22.138Z,1013.45
2022-10-09T10:06:22.139Z,1013.45
2022-10-09T10:07:22.149Z,1013.43
2022-10-09T10:08:22.117Z,1013.45
2022-10-09T10:09:22.136Z,1013.4
2022-10-09T10:10:28.124Z,1013.34
2022-10-09T10:11:22.352Z,1013.35
2022-10-09T10:12:22.193Z,1013.35
2022-10-09T10:13:22.183Z,1013.33
2022-10-09T10:14:22.543Z,1013.3
2022-10-09T10:15:22.119Z,1013.3
2022-10-09T10:16:22.496Z,1013.33
2022-10-09T10:17:22.334Z,1013.3
2022-10-09T10:18:22.131Z,1013.29
2022-10-09T10:19:22.233Z,1013.31
2022-10-09T10:20:22.471Z,1013.28
2022-10-09T10:21:22.301Z,1013.27
2022-10-09T10:22:22.167Z,1013.26
2022-10-09T10:23:22.275Z,1013.25
2022-10-09T10:24:22.535Z,1013.25
2022-10-09T10:25:22.129Z,1013.26
2022-10-09T10:26:22.352Z,1013.21
2022-10-09T10:27:22.132Z,1013.26
2022-10-09T10:28:22.162Z,1013.24
2022-10-09T10:29:22.161Z,1013.22
2022-10-09T10:30:22.137Z,1013.21
2022-10-09T10:31:22.138Z,1013.2
2022-10-09T10:32:22.224Z,1013.19
2022-10-09T10:33:22.215Z,1013.22
2022-10-09T10:34:22.135Z,1013.16
2022-10-09T10:35:22.145Z,1013.11
2022-10-09T10:36:22.130Z,1013.11
2022-10-09T10:37:22.137Z,1013.1
2022-10-09T10:38:22.126Z,1013.06
2022-10-09T10:39:22.153Z,1013.1
2022-10-09T10:40:22.150Z,1013.05
2022-10-09T10:41:22.274Z,1013.04
2022-10-09T10:42:22.140Z,1013.01
2022-10-09T10:43:22.135Z,1013.02
2022-10-09T10:44:22.137Z,1013.02
2022-10-09T10:45:22.128Z,1013
2022-10-09T10:46:22.196Z,1012.99
2022-10-09T10:47:22.148Z,1012.98
2022-10-09T10:48:22.129Z,1012.94
2022-10-09T10:49:22.137Z,1012.93
2022-10-09T10:50:22.136Z,1012.89
2022-10-09T10:51:22.139Z,1012.86
2022-10-09T10:52:22.128Z,1012.87
2022-10-09T10:53:22.140Z,1012.79
2022-10-09T10:54:22.146Z,1012.82
2022-10-09T10:55:22.148Z,1012.81
2022-10-09T10:56:22.156Z,1012.79
2022-10-09T10:57:22.145Z,1012.8
2022-10-09T10:58:23.928Z,1012.78
2022-10-09T10:59:22.162Z,1012.82
2022-10-09T11:00:22.132Z,1012.78
2022-10-09T11:01:22.234Z,1012.77
2022-10-09T11:02:22.135Z,1012.78
2022-10-09T11:03:22.230Z,1012.78
2022-10-09T11:04:22.132Z,1012.74
2022-10-09T11:05:22.127Z,1012.75
2022-10-09T11:06:22.154Z,1012.71
2022-10-09T11:07:22.160Z,1012.73
2022-10-09T11:08:22.132Z,1012.65
2022-10-09T11:09:22.126Z,1012.67
2022-10-09T11:10:22.233Z,1012.62
2022-10-09T11:11:22.149Z,1012.64
2022-10-09T11:12:47.123Z,1012.65
2022-10-09T11:13:22.619Z,1012.61
2022-10-09T11:14:23.627Z,1012.65
2022-10-09T11:15:22.914Z,1012.61
2022-10-09T11:16:22.672Z,1012.61
2022-10-09T11:17:22.992Z,1012.62
2022-10-09T11:18:23.720Z,1012.65
2022-10-09T11:19:22.504Z,1012.64
2022-10-09T11:20:22.864Z,1012.57
2022-10-09T11:21:23.165Z,1012.56
2022-10-09T11:22:22.598Z,1012.55
2022-10-09T11:23:22.868Z,1012.51
2022-10-09T11:24:23.159Z,1012.51
2022-10-09T11:25:23.704Z,1012.47
2022-10-09T11:26:22.983Z,1012.47
2022-10-09T11:27:23.718Z,1012.4
2022-10-09T11:28:22.915Z,1012.41
2022-10-09T11:29:22.133Z,1012.4
2022-10-09T11:30:22.227Z,1012.37
2022-10-09T11:31:22.154Z,1012.33
2022-10-09T11:32:22.156Z,1012.31
2022-10-09T11:33:22.137Z,1012.32
2022-10-09T11:34:22.142Z,1012.33
2022-10-09T11:35:22.138Z,1012.29
2022-10-09T11:36:22.154Z,1012.29
2022-10-09T11:37:22.218Z,1012.26
2022-10-09T11:38:22.310Z,1012.27
2022-10-09T11:39:22.257Z,1012.22
2022-10-09T11:40:22.131Z,1012.22
2022-10-09T11:41:22.355Z,1012.19
2022-10-09T11:42:22.102Z,1012.18
2022-10-09T11:43:22.126Z,1012.21
2022-10-09T11:44:22.242Z,1012.16
2022-10-09T11:45:22.528Z,1012.13
2022-10-09T11:46:22.277Z,1012.09
2022-10-09T11:47:22.194Z,1012.14
2022-10-09T11:48:22.430Z,1012.14
2022-10-09T11:49:22.116Z,1012.1
2022-10-09T11:50:22.369Z,1012.04
2022-10-09T11:51:22.337Z,1012.01
2022-10-09T11:52:22.640Z,1012.01
2022-10-09T11:53:22.185Z,1012.02
2022-10-09T11:54:22.519Z,1011.89
2022-10-09T11:55:22.793Z,1011.93
2022-10-09T11:56:22.638Z,1011.91
2022-10-09T11:57:22.952Z,1011.88
2022-10-09T11:58:23.749Z,1011.95
2022-10-09T11:59:22.876Z,1011.92
2022-10-09T12:00:24.193Z,1011.86
2022-10-09T12:01:22.398Z,1011.82
2022-10-09T12:02:22.612Z,1011.81
2022-10-09T12:03:22.770Z,1011.81
2022-10-09T12:04:50.367Z,1011.78
2022-10-09T12:05:22.152Z,1011.77
2022-10-09T12:06:22.356Z,1011.7
2022-10-09T12:07:22.661Z,1011.68
2022-10-09T12:08:22.138Z,1011.69
2022-10-09T12:09:22.156Z,1011.65